sensor_id;sensor_type;location;lat;lon;timestamp;pressure;altitude;pressure_sealevel;temperature;humidity
76730;BME280;65653;53.106;18.046;2023-04-24T00:01:21;99855.36;;;12.33;85.15
76730;BME280;65653;53.106;18.046;2023-04-24T00:03:48;99855.30;;;12.32;85.66
76730;BME280;65653;53.106;18.046;2023-04-24T00:06:14;99857.17;;;12.29;85.46
76730;BME280;65653;53.106;18.046;2023-04-24T00:08:43;99856.54;;;12.27;85.68
76730;BME280;65653;53.106;18.046;2023-04-24T00:11:10;99863.23;;;12.26;85.84
76730;BME280;65653;53.106;18.046;2023-04-24T00:13:37;99856.16;;;12.28;85.64
76730;BME280;65653;53.106;18.046;2023-04-24T00:16:04;99847.41;;;12.28;85.67
76730;BME280;65653;53.106;18.046;2023-04-24T00:18:31;99839.93;;;12.28;85.42
76730;BME280;65653;53.106;18.046;2023-04-24T00:20:58;99837.71;;;12.31;85.41
76730;BME280;65653;53.106;18.046;2023-04-24T00:23:25;99839.17;;;12.32;85.22
76730;BME280;65653;53.106;18.046;2023-04-24T00:25:52;99835.38;;;12.33;85.19
76730;BME280;65653;53.106;18.046;2023-04-24T00:28:19;99836.06;;;12.32;85.19
76730;BME280;65653;53.106;18.046;2023-04-24T00:30:45;99835.65;;;12.30;85.36
76730;BME280;65653;53.106;18.046;2023-04-24T00:33:12;99832.95;;;12.27;85.66
76730;BME280;65653;53.106;18.046;2023-04-24T00:35:38;99828.77;;;12.24;85.42
76730;BME280;65653;53.106;18.046;2023-04-24T00:38:05;99826.98;;;12.24;85.76
76730;BME280;65653;53.106;18.046;2023-04-24T00:40:31;99822.84;;;12.23;85.52
76730;BME280;65653;53.106;18.046;2023-04-24T00:42:58;99818.65;;;12.21;85.53
76730;BME280;65653;53.106;18.046;2023-04-24T00:45:25;99815.20;;;12.23;85.61
76730;BME280;65653;53.106;18.046;2023-04-24T00:47:52;99813.52;;;12.29;85.67
76730;BME280;65653;53.106;18.046;2023-04-24T00:50:20;99811.62;;;12.33;85.64
76730;BME280;65653;53.106;18.046;2023-04-24T00:52:47;99812.54;;;12.34;85.31
76730;BME280;65653;53.106;18.046;2023-04-24T00:55:14;99813.49;;;12.31;85.46
76730;BME280;65653;53.106;18.046;2023-04-24T00:57:41;99818.74;;;12.32;85.52
76730;BME280;65653;53.106;18.046;2023-04-24T01:00:08;99819.21;;;12.31;85.76
76730;BME280;65653;53.106;18.046;2023-04-24T01:02:39;99820.39;;;12.29;85.64
76730;BME280;65653;53.106;18.046;2023-04-24T01:05:07;99818.65;;;12.26;86.21
76730;BME280;65653;53.106;18.046;2023-04-24T01:07:35;99815.73;;;12.19;86.37
76730;BME280;65653;53.106;18.046;2023-04-24T01:10:02;99811.55;;;12.13;86.60
76730;BME280;65653;53.106;18.046;2023-04-24T01:12:29;99811.90;;;12.10;86.68
76730;BME280;65653;53.106;18.046;2023-04-24T01:14:57;99808.60;;;12.07;86.33
76730;BME280;65653;53.106;18.046;2023-04-24T01:17:23;99808.76;;;12.06;86.54
76730;BME280;65653;53.106;18.046;2023-04-24T01:19:50;99805.49;;;12.05;86.70
76730;BME280;65653;53.106;18.046;2023-04-24T01:22:20;99797.48;;;12.04;86.46
76730;BME280;65653;53.106;18.046;2023-04-24T01:24:47;99795.16;;;12.04;86.48
76730;BME280;65653;53.106;18.046;2023-04-24T01:27:13;99791.61;;;12.05;87.01
76730;BME280;65653;53.106;18.046;2023-04-24T01:29:41;99796.58;;;12.04;87.57
76730;BME280;65653;53.106;18.046;2023-04-24T01:32:07;99794.74;;;12.04;87.49
76730;BME280;65653;53.106;18.046;2023-04-24T01:34:34;99796.67;;;12.03;87.35
76730;BME280;65653;53.106;18.046;2023-04-24T01:37:01;99799.20;;;12.02;87.40
76730;BME280;65653;53.106;18.046;2023-04-24T01:39:27;99794.81;;;12.02;87.33
76730;BME280;65653;53.106;18.046;2023-04-24T01:41:55;99793.64;;;12.01;87.39
76730;BME280;65653;53.106;18.046;2023-04-24T01:44:23;99792.55;;;12.00;87.79
76730;BME280;65653;53.106;18.046;2023-04-24T01:46:49;99794.34;;;11.99;87.85
76730;BME280;65653;53.106;18.046;2023-04-24T01:49:16;99794.23;;;11.99;87.68
76730;BME280;65653;53.106;18.046;2023-04-24T01:51:43;99791.02;;;11.99;87.46
76730;BME280;65653;53.106;18.046;2023-04-24T01:54:11;99792.48;;;11.99;87.46
76730;BME280;65653;53.106;18.046;2023-04-24T01:56:42;99788.20;;;11.98;87.60
76730;BME280;65653;53.106;18.046;2023-04-24T02:06:35;99785.21;;;11.99;87.27
76730;BME280;65653;53.106;18.046;2023-04-24T02:09:02;99785.64;;;11.99;87.28
76730;BME280;65653;53.106;18.046;2023-04-24T02:11:30;99785.27;;;12.00;87.46
76730;BME280;65653;53.106;18.046;2023-04-24T02:13:57;99785.21;;;12.00;87.95
76730;BME280;65653;53.106;18.046;2023-04-24T02:16:23;99785.27;;;11.98;87.74
76730;BME280;65653;53.106;18.046;2023-04-24T02:18:50;99782.05;;;11.96;87.76
76730;BME280;65653;53.106;18.046;2023-04-24T02:21:17;99776.91;;;11.95;88.01
76730;BME280;65653;53.106;18.046;2023-04-24T02:23:43;99773.06;;;11.92;88.13
76730;BME280;65653;53.106;18.046;2023-04-24T02:26:10;99764.78;;;11.89;88.10
76730;BME280;65653;53.106;18.046;2023-04-24T02:28:37;99763.45;;;11.87;88.15
76730;BME280;65653;53.106;18.046;2023-04-24T02:31:04;99764.84;;;11.86;88.34
76730;BME280;65653;53.106;18.046;2023-04-24T02:33:31;99760.88;;;11.85;87.99
76730;BME280;65653;53.106;18.046;2023-04-24T02:35:58;99762.64;;;11.87;87.77
76730;BME280;65653;53.106;18.046;2023-04-24T02:38:24;99763.05;;;11.86;88.01
76730;BME280;65653;53.106;18.046;2023-04-24T02:40:51;99762.73;;;11.87;87.70
76730;BME280;65653;53.106;18.046;2023-04-24T02:43:17;99761.23;;;11.90;87.63
76730;BME280;65653;53.106;18.046;2023-04-24T02:45:43;99757.94;;;11.91;87.80
76730;BME280;65653;53.106;18.046;2023-04-24T02:48:10;99758.50;;;11.91;88.08
76730;BME280;65653;53.106;18.046;2023-04-24T02:50:37;99750.04;;;11.90;88.02
76730;BME280;65653;53.106;18.046;2023-04-24T02:53:03;99746.58;;;11.91;87.58
76730;BME280;65653;53.106;18.046;2023-04-24T02:55:30;99752.10;;;11.92;87.59
76730;BME280;65653;53.106;18.046;2023-04-24T02:57:57;99751.90;;;11.94;87.79
76730;BME280;65653;53.106;18.046;2023-04-24T03:00:23;99747.33;;;11.95;87.67
76730;BME280;65653;53.106;18.046;2023-04-24T03:02:50;99746.58;;;11.96;87.55
76730;BME280;65653;53.106;18.046;2023-04-24T03:05:17;99750.25;;;11.98;87.51
76730;BME280;65653;53.106;18.046;2023-04-24T03:07:43;99753.87;;;11.99;87.41
76730;BME280;65653;53.106;18.046;2023-04-24T03:10:10;99753.09;;;12.00;87.05
76730;BME280;65653;53.106;18.046;2023-04-24T03:12:36;99751.15;;;12.01;86.88
76730;BME280;65653;53.106;18.046;2023-04-24T03:15:03;99752.55;;;12.01;86.58
76730;BME280;65653;53.106;18.046;2023-04-24T03:17:30;99749.64;;;12.02;86.42
76730;BME280;65653;53.106;18.046;2023-04-24T03:19:56;99751.80;;;12.02;86.51
76730;BME280;65653;53.106;18.046;2023-04-24T03:22:23;99751.17;;;12.02;86.45
76730;BME280;65653;53.106;18.046;2023-04-24T03:24:49;99752.34;;;12.02;86.27
76730;BME280;65653;53.106;18.046;2023-04-24T03:27:16;99758.67;;;12.02;86.08
76730;BME280;65653;53.106;18.046;2023-04-24T03:29:42;99764.98;;;12.03;85.96
76730;BME280;65653;53.106;18.046;2023-04-24T03:32:09;99767.67;;;12.04;86.33
76730;BME280;65653;53.106;18.046;2023-04-24T03:34:36;99774.88;;;12.04;86.39
76730;BME280;65653;53.106;18.046;2023-04-24T03:37:02;99773.06;;;12.02;86.48
76730;BME280;65653;53.106;18.046;2023-04-24T03:39:29;99773.14;;;12.01;86.84
76730;BME280;65653;53.106;18.046;2023-04-24T03:41:55;99773.13;;;11.99;86.76
76730;BME280;65653;53.106;18.046;2023-04-24T03:44:22;99772.05;;;11.97;87.06
76730;BME280;65653;53.106;18.046;2023-04-24T03:46:48;99768.30;;;11.92;87.46
76730;BME280;65653;53.106;18.046;2023-04-24T03:49:15;99761.62;;;11.81;88.16
76730;BME280;65653;53.106;18.046;2023-04-24T03:51:42;99756.95;;;11.71;88.65
76730;BME280;65653;53.106;18.046;2023-04-24T03:54:08;99755.33;;;11.66;89.09
76730;BME280;65653;53.106;18.046;2023-04-24T03:56:34;99757.63;;;11.61;89.62
76730;BME280;65653;53.106;18.046;2023-04-24T03:59:01;99751.98;;;11.55;89.88
76730;BME280;65653;53.106;18.046;2023-04-24T04:01:28;99750.09;;;11.51;90.24
76730;BME280;65653;53.106;18.046;2023-04-24T04:03:57;99748.91;;;11.49;90.53
76730;BME280;65653;53.106;18.046;2023-04-24T04:06:23;99746.86;;;11.47;90.60
76730;BME280;65653;53.106;18.046;2023-04-24T04:08:50;99740.86;;;11.46;90.39
76730;BME280;65653;53.106;18.046;2023-04-24T04:11:17;99738.67;;;11.46;90.41
76730;BME280;65653;53.106;18.046;2023-04-24T04:13:43;99739.36;;;11.46;90.18
76730;BME280;65653;53.106;18.046;2023-04-24T04:16:10;99738.02;;;11.48;90.35
76730;BME280;65653;53.106;18.046;2023-04-24T04:18:37;99735.98;;;11.50;90.17
76730;BME280;65653;53.106;18.046;2023-04-24T04:21:03;99737.23;;;11.55;90.17
76730;BME280;65653;53.106;18.046;2023-04-24T04:23:30;99733.18;;;11.60;90.28
76730;BME280;65653;53.106;18.046;2023-04-24T04:25:58;99730.79;;;11.63;90.28
76730;BME280;65653;53.106;18.046;2023-04-24T04:28:25;99727.78;;;11.65;90.38
76730;BME280;65653;53.106;18.046;2023-04-24T04:30:52;99728.48;;;11.67;90.19
76730;BME280;65653;53.106;18.046;2023-04-24T04:33:30;99732.70;;;11.79;90.60
76730;BME280;65653;53.106;18.046;2023-04-24T04:36:11;99729.87;;;11.92;90.64
76730;BME280;65653;53.106;18.046;2023-04-24T04:38:38;99731.80;;;11.93;91.05
76730;BME280;65653;53.106;18.046;2023-04-24T04:41:33;99733.74;;;11.95;90.19
76730;BME280;65653;53.106;18.046;2023-04-24T04:44:06;99733.61;;;11.97;90.05
76730;BME280;65653;53.106;18.046;2023-04-24T04:46:35;99731.20;;;12.00;90.28
76730;BME280;65653;53.106;18.046;2023-04-24T04:49:03;99724.88;;;12.04;89.96
76730;BME280;65653;53.106;18.046;2023-04-24T04:51:30;99726.14;;;12.10;90.15
76730;BME280;65653;53.106;18.046;2023-04-24T04:53:57;99724.71;;;12.17;90.02
76730;BME280;65653;53.106;18.046;2023-04-24T04:56:23;99724.82;;;12.24;90.27
76730;BME280;65653;53.106;18.046;2023-04-24T04:58:51;99720.44;;;12.27;89.80
76730;BME280;65653;53.106;18.046;2023-04-24T05:01:17;99717.55;;;12.31;89.60
76730;BME280;65653;53.106;18.046;2023-04-24T05:03:44;99715.40;;;12.43;89.19
76730;BME280;65653;53.106;18.046;2023-04-24T05:06:10;99711.11;;;12.59;88.79
76730;BME280;65653;53.106;18.046;2023-04-24T05:08:37;99711.71;;;12.75;88.37
76730;BME280;65653;53.106;18.046;2023-04-24T05:11:04;99712.28;;;12.83;88.10
76730;BME280;65653;53.106;18.046;2023-04-24T05:13:30;99714.63;;;12.89;87.72
76730;BME280;65653;53.106;18.046;2023-04-24T05:15:57;99712.61;;;12.96;87.49
76730;BME280;65653;53.106;18.046;2023-04-24T05:18:24;99706.14;;;13.07;87.54
76730;BME280;65653;53.106;18.046;2023-04-24T05:20:50;99706.90;;;13.13;87.22
76730;BME280;65653;53.106;18.046;2023-04-24T05:23:17;99707.29;;;13.13;87.21
76730;BME280;65653;53.106;18.046;2023-04-24T05:25:44;99707.55;;;13.13;86.90
76730;BME280;65653;53.106;18.046;2023-04-24T05:28:10;99705.16;;;13.16;86.56
76730;BME280;65653;53.106;18.046;2023-04-24T05:30:37;99708.72;;;13.20;86.16
76730;BME280;65653;53.106;18.046;2023-04-24T05:33:03;99710.88;;;13.25;85.78
76730;BME280;65653;53.106;18.046;2023-04-24T05:35:30;99714.81;;;13.41;85.84
76730;BME280;65653;53.106;18.046;2023-04-24T05:37:57;99714.39;;;13.62;85.53
76730;BME280;65653;53.106;18.046;2023-04-24T05:40:23;99711.52;;;13.81;84.39
76730;BME280;65653;53.106;18.046;2023-04-24T05:42:50;99704.80;;;14.03;83.51
76730;BME280;65653;53.106;18.046;2023-04-24T05:45:17;99706.53;;;14.29;82.44
76730;BME280;65653;53.106;18.046;2023-04-24T05:47:43;99700.27;;;14.38;81.83
76730;BME280;65653;53.106;18.046;2023-04-24T05:50:11;99700.46;;;14.42;82.38
76730;BME280;65653;53.106;18.046;2023-04-24T05:52:37;99699.69;;;14.42;81.96
76730;BME280;65653;53.106;18.046;2023-04-24T05:55:04;99703.08;;;14.42;81.72
76730;BME280;65653;53.106;18.046;2023-04-24T05:57:31;99703.06;;;14.40;82.10
76730;BME280;65653;53.106;18.046;2023-04-24T05:59:58;99703.70;;;14.42;81.83
76730;BME280;65653;53.106;18.046;2023-04-24T06:02:24;99702.60;;;14.44;81.36
76730;BME280;65653;53.106;18.046;2023-04-24T06:04:51;99703.25;;;14.50;81.57
76730;BME280;65653;53.106;18.046;2023-04-24T06:07:18;99702.16;;;14.61;81.08
76730;BME280;65653;53.106;18.046;2023-04-24T06:09:44;99701.40;;;14.70;80.74
76730;BME280;65653;53.106;18.046;2023-04-24T06:12:11;99700.41;;;14.67;79.66
76730;BME280;65653;53.106;18.046;2023-04-24T06:14:38;99699.23;;;14.71;79.59
76730;BME280;65653;53.106;18.046;2023-04-24T06:17:04;99696.64;;;14.84;79.54
76730;BME280;65653;53.106;18.046;2023-04-24T06:19:31;99691.64;;;14.94;78.62
76730;BME280;65653;53.106;18.046;2023-04-24T06:21:57;99691.65;;;15.04;77.73
76730;BME280;65653;53.106;18.046;2023-04-24T06:24:27;99691.94;;;15.07;76.69
76730;BME280;65653;53.106;18.046;2023-04-24T06:26:54;99689.69;;;15.19;76.76
76730;BME280;65653;53.106;18.046;2023-04-24T06:29:21;99682.33;;;15.46;76.43
76730;BME280;65653;53.106;18.046;2023-04-24T06:31:48;99678.17;;;15.74;76.15
76730;BME280;65653;53.106;18.046;2023-04-24T06:34:14;99671.17;;;15.94;74.96
76730;BME280;65653;53.106;18.046;2023-04-24T06:36:41;99668.32;;;15.88;73.95
76730;BME280;65653;53.106;18.046;2023-04-24T06:39:08;99665.16;;;15.80;73.95
76730;BME280;65653;53.106;18.046;2023-04-24T06:41:35;99664.87;;;15.78;73.62
76730;BME280;65653;53.106;18.046;2023-04-24T06:44:02;99665.70;;;15.84;73.69
76730;BME280;65653;53.106;18.046;2023-04-24T06:46:28;99668.53;;;15.93;73.78
76730;BME280;65653;53.106;18.046;2023-04-24T06:48:55;99665.92;;;15.96;72.80
76730;BME280;65653;53.106;18.046;2023-04-24T06:51:26;99665.59;;;16.07;73.10
76730;BME280;65653;53.106;18.046;2023-04-24T06:53:53;99665.09;;;16.15;72.04
76730;BME280;65653;53.106;18.046;2023-04-24T06:56:20;99664.79;;;16.19;70.26
76730;BME280;65653;53.106;18.046;2023-04-24T06:58:46;99666.65;;;16.34;70.34
76730;BME280;65653;53.106;18.046;2023-04-24T07:01:14;99661.61;;;16.42;69.07
76730;BME280;65653;53.106;18.046;2023-04-24T07:03:41;99659.05;;;16.45;68.48
76730;BME280;65653;53.106;18.046;2023-04-24T07:06:09;99657.86;;;16.59;68.99
76730;BME280;65653;53.106;18.046;2023-04-24T07:08:37;99656.39;;;16.77;68.10
76730;BME280;65653;53.106;18.046;2023-04-24T07:11:04;99657.35;;;17.00;67.97
76730;BME280;65653;53.106;18.046;2023-04-24T07:13:31;99653.27;;;17.02;66.03
76730;BME280;65653;53.106;18.046;2023-04-24T07:15:57;99652.80;;;17.09;66.47
76730;BME280;65653;53.106;18.046;2023-04-24T07:18:24;99653.02;;;17.23;66.71
76730;BME280;65653;53.106;18.046;2023-04-24T07:20:51;99650.75;;;17.28;64.37
76730;BME280;65653;53.106;18.046;2023-04-24T07:23:18;99650.08;;;17.30;62.28
76730;BME280;65653;53.106;18.046;2023-04-24T07:25:45;99649.02;;;17.44;62.07
76730;BME280;65653;53.106;18.046;2023-04-24T07:28:12;99645.95;;;17.47;60.39
76730;BME280;65653;53.106;18.046;2023-04-24T07:30:39;99647.80;;;17.35;60.36
76730;BME280;65653;53.106;18.046;2023-04-24T07:33:05;99647.48;;;17.38;60.81
76730;BME280;65653;53.106;18.046;2023-04-24T07:35:33;99650.13;;;17.44;60.42
76730;BME280;65653;53.106;18.046;2023-04-24T07:37:59;99651.89;;;17.51;60.35
76730;BME280;65653;53.106;18.046;2023-04-24T07:40:27;99651.84;;;17.67;60.05
76730;BME280;65653;53.106;18.046;2023-04-24T07:42:53;99648.16;;;17.76;58.71
76730;BME280;65653;53.106;18.046;2023-04-24T07:45:19;99639.66;;;17.85;58.41
76730;BME280;65653;53.106;18.046;2023-04-24T07:47:46;99642.63;;;17.96;57.99
76730;BME280;65653;53.106;18.046;2023-04-24T07:50:13;99637.27;;;17.94;57.13
76730;BME280;65653;53.106;18.046;2023-04-24T07:52:39;99637.43;;;18.08;57.75
76730;BME280;65653;53.106;18.046;2023-04-24T07:55:06;99641.73;;;18.29;56.93
76730;BME280;65653;53.106;18.046;2023-04-24T07:57:33;99640.61;;;18.32;56.12
76730;BME280;65653;53.106;18.046;2023-04-24T08:00:00;99641.73;;;18.45;55.45
76730;BME280;65653;53.106;18.046;2023-04-24T08:02:26;99642.29;;;18.57;55.53
76730;BME280;65653;53.106;18.046;2023-04-24T08:04:53;99642.36;;;18.57;54.59
76730;BME280;65653;53.106;18.046;2023-04-24T08:07:20;99641.40;;;18.58;54.17
76730;BME280;65653;53.106;18.046;2023-04-24T08:09:47;99642.98;;;18.53;53.91
76730;BME280;65653;53.106;18.046;2023-04-24T08:12:14;99639.45;;;18.80;54.68
76730;BME280;65653;53.106;18.046;2023-04-24T08:14:40;99641.47;;;19.10;53.21
76730;BME280;65653;53.106;18.046;2023-04-24T08:17:07;99644.27;;;19.23;52.07
76730;BME280;65653;53.106;18.046;2023-04-24T08:19:33;99636.42;;;19.49;52.14
76730;BME280;65653;53.106;18.046;2023-04-24T08:22:00;99637.68;;;19.96;51.49
76730;BME280;65653;53.106;18.046;2023-04-24T08:24:27;99635.74;;;20.47;50.12
76730;BME280;65653;53.106;18.046;2023-04-24T08:26:53;99636.03;;;20.06;49.30
76730;BME280;65653;53.106;18.046;2023-04-24T08:29:20;99634.34;;;20.07;51.03
76730;BME280;65653;53.106;18.046;2023-04-24T08:31:47;99629.05;;;20.07;49.79
76730;BME280;65653;53.106;18.046;2023-04-24T08:34:14;99632.55;;;19.84;49.63
76730;BME280;65653;53.106;18.046;2023-04-24T08:36:40;99630.52;;;19.77;50.17
76730;BME280;65653;53.106;18.046;2023-04-24T08:39:07;99628.80;;;19.65;49.80
76730;BME280;65653;53.106;18.046;2023-04-24T08:41:34;99628.73;;;19.47;50.20
76730;BME280;65653;53.106;18.046;2023-04-24T08:44:02;99629.50;;;19.39;50.71
76730;BME280;65653;53.106;18.046;2023-04-24T08:46:29;99630.40;;;19.12;50.59
76730;BME280;65653;53.106;18.046;2023-04-24T08:48:57;99631.70;;;18.77;50.67
76730;BME280;65653;53.106;18.046;2023-04-24T08:51:26;99634.88;;;18.59;51.48
76730;BME280;65653;53.106;18.046;2023-04-24T08:53:53;99636.30;;;18.51;51.83
76730;BME280;65653;53.106;18.046;2023-04-24T08:56:21;99636.97;;;18.47;51.94
76730;BME280;65653;53.106;18.046;2023-04-24T08:58:53;99639.44;;;18.56;52.05
76730;BME280;65653;53.106;18.046;2023-04-24T09:01:20;99640.38;;;18.63;51.78
76730;BME280;65653;53.106;18.046;2023-04-24T09:03:51;99637.13;;;18.64;51.62
76730;BME280;65653;53.106;18.046;2023-04-24T09:06:21;99637.71;;;18.54;52.14
76730;BME280;65653;53.106;18.046;2023-04-24T09:08:51;99640.63;;;18.45;52.49
76730;BME280;65653;53.106;18.046;2023-04-24T09:11:20;99645.72;;;18.29;52.95
76730;BME280;65653;53.106;18.046;2023-04-24T09:13:48;99648.86;;;18.25;53.38
76730;BME280;65653;53.106;18.046;2023-04-24T09:16:15;99642.74;;;18.13;53.80
76730;BME280;65653;53.106;18.046;2023-04-24T09:18:41;99646.44;;;17.96;54.49
76730;BME280;65653;53.106;18.046;2023-04-24T09:21:09;99648.50;;;17.83;55.26
76730;BME280;65653;53.106;18.046;2023-04-24T09:23:35;99646.25;;;17.76;55.79
76730;BME280;65653;53.106;18.046;2023-04-24T09:26:03;99649.77;;;17.66;55.93
76730;BME280;65653;53.106;18.046;2023-04-24T09:28:37;99645.02;;;17.72;56.10
76730;BME280;65653;53.106;18.046;2023-04-24T09:31:09;99641.58;;;17.90;55.90
76730;BME280;65653;53.106;18.046;2023-04-24T09:33:36;99641.23;;;18.14;55.77
76730;BME280;65653;53.106;18.046;2023-04-24T09:36:03;99640.84;;;18.26;55.54
76730;BME280;65653;53.106;18.046;2023-04-24T09:38:33;99636.23;;;18.35;54.86
76730;BME280;65653;53.106;18.046;2023-04-24T09:41:05;99631.02;;;18.59;55.03
76730;BME280;65653;53.106;18.046;2023-04-24T09:43:36;99629.19;;;19.04;54.08
76730;BME280;65653;53.106;18.046;2023-04-24T09:46:07;99622.70;;;19.76;52.69
76730;BME280;65653;53.106;18.046;2023-04-24T09:48:37;99612.59;;;20.90;49.25
76730;BME280;65653;53.106;18.046;2023-04-24T09:51:05;99610.10;;;22.52;47.24
76730;BME280;65653;53.106;18.046;2023-04-24T09:53:37;99605.60;;;23.74;43.57
76730;BME280;65653;53.106;18.046;2023-04-24T09:56:09;99605.05;;;23.55;43.56
76730;BME280;65653;53.106;18.046;2023-04-24T09:58:36;99605.84;;;23.45;43.75
76730;BME280;65653;53.106;18.046;2023-04-24T10:01:03;99602.84;;;23.42;43.01
76730;BME280;65653;53.106;18.046;2023-04-24T10:03:31;99591.74;;;23.76;42.96
76730;BME280;65653;53.106;18.046;2023-04-24T10:06:02;99595.41;;;23.60;41.77
76730;BME280;65653;53.106;18.046;2023-04-24T10:08:36;99595.30;;;23.26;42.94
76730;BME280;65653;53.106;18.046;2023-04-24T10:11:03;99589.84;;;23.05;42.01
76730;BME280;65653;53.106;18.046;2023-04-24T10:13:30;99582.31;;;22.69;42.04
76730;BME280;65653;53.106;18.046;2023-04-24T10:16:02;99577.64;;;22.24;42.95
76730;BME280;65653;53.106;18.046;2023-04-24T10:18:30;99577.31;;;21.94;43.74
76730;BME280;65653;53.106;18.046;2023-04-24T10:20:57;99584.27;;;21.60;44.19
76730;BME280;65653;53.106;18.046;2023-04-24T10:23:27;99585.59;;;21.61;44.71
76730;BME280;65653;53.106;18.046;2023-04-24T10:25:55;99590.33;;;21.95;44.23
76730;BME280;65653;53.106;18.046;2023-04-24T10:28:22;99586.03;;;22.41;43.09
76730;BME280;65653;53.106;18.046;2023-04-24T10:30:51;99582.02;;;23.05;42.43
76730;BME280;65653;53.106;18.046;2023-04-24T10:33:22;99578.04;;;23.87;41.01
76730;BME280;65653;53.106;18.046;2023-04-24T10:35:50;99576.80;;;24.43;39.96
76730;BME280;65653;53.106;18.046;2023-04-24T10:38:22;99577.53;;;25.15;38.53
76730;BME280;65653;53.106;18.046;2023-04-24T10:40:51;99579.64;;;27.03;35.89
76730;BME280;65653;53.106;18.046;2023-04-24T10:43:18;99577.95;;;27.79;35.05
76730;BME280;65653;53.106;18.046;2023-04-24T10:46:05;99577.37;;;28.79;33.38
76730;BME280;65653;53.106;18.046;2023-04-24T10:48:33;99572.73;;;29.62;32.07
76730;BME280;65653;53.106;18.046;2023-04-24T10:51:01;99572.73;;;30.46;30.45
76730;BME280;65653;53.106;18.046;2023-04-24T10:53:29;99574.36;;;30.94;28.45
76730;BME280;65653;53.106;18.046;2023-04-24T10:56:07;99568.14;;;30.53;28.66
76730;BME280;65653;53.106;18.046;2023-04-24T10:58:42;99565.38;;;31.10;28.68
76730;BME280;65653;53.106;18.046;2023-04-24T11:01:34;99563.59;;;32.17;27.37
76730;BME280;65653;53.106;18.046;2023-04-24T11:04:04;99563.98;;;31.84;27.15
76730;BME280;65653;53.106;18.046;2023-04-24T11:06:32;99567.60;;;31.25;28.35
76730;BME280;65653;53.106;18.046;2023-04-24T11:09:09;99567.75;;;29.60;30.03
76730;BME280;65653;53.106;18.046;2023-04-24T11:11:37;99572.38;;;27.95;32.78
76730;BME280;65653;53.106;18.046;2023-04-24T11:14:07;99582.33;;;26.45;35.88
76730;BME280;65653;53.106;18.046;2023-04-24T11:16:38;99580.14;;;25.27;38.21
76730;BME280;65653;53.106;18.046;2023-04-24T11:19:07;99584.18;;;25.01;38.64
76730;BME280;65653;53.106;18.046;2023-04-24T11:26:51;99590.08;;;24.75;39.26
76730;BME280;65653;53.106;18.046;2023-04-24T11:29:20;99589.21;;;25.76;37.29
76730;BME280;65653;53.106;18.046;2023-04-24T11:31:47;99594.83;;;26.99;34.64
76730;BME280;65653;53.106;18.046;2023-04-24T11:34:17;99594.38;;;27.06;34.32
76730;BME280;65653;53.106;18.046;2023-04-24T11:36:44;99591.25;;;28.12;32.62
76730;BME280;65653;53.106;18.046;2023-04-24T11:39:11;99584.56;;;29.18;30.96
76730;BME280;65653;53.106;18.046;2023-04-24T11:41:38;99584.10;;;29.33;31.11
76730;BME280;65653;53.106;18.046;2023-04-24T11:44:09;99589.30;;;28.73;31.84
76730;BME280;65653;53.106;18.046;2023-04-24T11:46:36;99593.88;;;27.40;33.40
76730;BME280;65653;53.106;18.046;2023-04-24T11:49:04;99598.13;;;26.74;34.56
76730;BME280;65653;53.106;18.046;2023-04-24T11:51:30;99596.39;;;26.83;34.61
76730;BME280;65653;53.106;18.046;2023-04-24T11:53:58;99591.16;;;26.82;34.84
76730;BME280;65653;53.106;18.046;2023-04-24T11:56:25;99585.92;;;28.20;33.02
76730;BME280;65653;53.106;18.046;2023-04-24T11:58:52;99582.73;;;29.67;30.83
76730;BME280;65653;53.106;18.046;2023-04-24T12:01:22;99582.11;;;31.44;28.42
76730;BME280;65653;53.106;18.046;2023-04-24T12:03:50;99580.02;;;31.74;26.91
76730;BME280;65653;53.106;18.046;2023-04-24T12:06:17;99562.69;;;32.42;26.42
76730;BME280;65653;53.106;18.046;2023-04-24T12:08:48;99565.64;;;33.67;24.78
76730;BME280;65653;53.106;18.046;2023-04-24T12:11:20;99561.52;;;33.00;25.22
76730;BME280;65653;53.106;18.046;2023-04-24T12:13:47;99557.16;;;31.92;26.10
76730;BME280;65653;53.106;18.046;2023-04-24T12:16:13;99561.83;;;29.57;29.09
76730;BME280;65653;53.106;18.046;2023-04-24T12:18:47;99568.70;;;27.46;31.74
76730;BME280;65653;53.106;18.046;2023-04-24T12:21:19;99561.88;;;26.22;33.55
76730;BME280;65653;53.106;18.046;2023-04-24T12:23:46;99560.26;;;25.59;34.71
76730;BME280;65653;53.106;18.046;2023-04-24T12:26:17;99566.67;;;26.13;34.01
76730;BME280;65653;53.106;18.046;2023-04-24T12:28:47;99560.46;;;26.12;33.93
76730;BME280;65653;53.106;18.046;2023-04-24T12:31:16;99556.60;;;25.06;35.50
76730;BME280;65653;53.106;18.046;2023-04-24T12:33:43;99557.66;;;25.02;35.70
76730;BME280;65653;53.106;18.046;2023-04-24T12:36:11;99554.11;;;26.40;33.23
76730;BME280;65653;53.106;18.046;2023-04-24T12:38:39;99535.86;;;28.10;29.90
76730;BME280;65653;53.106;18.046;2023-04-24T12:41:13;99539.83;;;28.26;29.87
76730;BME280;65653;53.106;18.046;2023-04-24T12:43:51;99544.96;;;27.03;31.81
76730;BME280;65653;53.106;18.046;2023-04-24T12:46:30;99543.74;;;26.97;31.84
76730;BME280;65653;53.106;18.046;2023-04-24T12:48:57;99542.54;;;25.98;32.92
76730;BME280;65653;53.106;18.046;2023-04-24T12:51:24;99546.31;;;25.30;34.60
76730;BME280;65653;53.106;18.046;2023-04-24T12:53:51;99542.04;;;25.33;34.58
76730;BME280;65653;53.106;18.046;2023-04-24T12:56:17;99544.39;;;24.56;34.50
76730;BME280;65653;53.106;18.046;2023-04-24T12:58:44;99537.59;;;24.19;35.76
76730;BME280;65653;53.106;18.046;2023-04-24T13:01:10;99540.45;;;23.97;36.34
76730;BME280;65653;53.106;18.046;2023-04-24T13:03:40;99539.60;;;23.79;36.37
76730;BME280;65653;53.106;18.046;2023-04-24T13:06:06;99541.33;;;23.57;36.13